Time;durP1;ratioP1;P1;durP2;ratioP2;P2;SDS_P1;SDS_P2;PMS_P1;PMS_P2;Temp;Humidity;BMP_temperature;BMP_pressure;BME280_temperature;BME280_humidity;BME280_pressure;Samples;Min_cycle;Max_cycle;Signal;HPM_P1;HPM_P2
2022/02/14 01:08:26;;;;;;;9.13;5.70;;;6.70;71.10;;;;;;4367852;23;20485;-87
2022/02/14 01:10:53;;;;;;;5.97;4.80;;;6.70;70.90;;;;;;4973211;28;20460;-84
2022/02/14 01:13:20;;;;;;;7.60;6.70;;;6.70;70.70;;;;;;4966069;29;20479;-87
2022/02/14 01:15:46;;;;;;;5.60;4.73;;;6.70;70.90;;;;;;4967842;28;20948;-87
2022/02/14 01:18:13;;;;;;;7.17;6.03;;;6.70;70.50;;;;;;4957057;28;20475;-87
2022/02/14 01:20:40;;;;;;;5.90;4.57;;;6.80;70.40;;;;;;4957353;28;20476;-86
2022/02/14 01:23:07;;;;;;;7.73;5.60;;;6.80;70.10;;;;;;4957136;28;20468;-85
2022/02/14 01:25:35;;;;;;;8.17;5.27;;;6.90;69.60;;;;;;4956648;28;20457;-86
2022/02/14 01:28:02;;;;;;;8.53;5.13;;;6.90;69.40;;;;;;4957979;28;20469;-86
2022/02/14 01:30:29;;;;;;;7.77;4.83;;;7.00;69.20;;;;;;4966442;28;20437;-86
2022/02/14 01:32:58;;;;;;;5.90;5.30;;;7.00;68.30;;;;;;4977951;28;20476;-85
2022/02/14 01:35:25;;;;;;;5.10;4.27;;;7.10;67.90;;;;;;4967904;28;20445;-86
2022/02/14 01:37:52;;;;;;;5.90;4.53;;;7.10;67.70;;;;;;4959516;28;20461;-86
2022/02/14 01:40:19;;;;;;;7.20;4.50;;;7.10;67.10;;;;;;4957700;28;20464;-86
2022/02/14 01:42:47;;;;;;;7.10;5.77;;;7.10;67.10;;;;;;4957332;29;20456;-86
2022/02/14 01:45:14;;;;;;;6.50;4.40;;;7.20;66.90;;;;;;4958148;28;20432;-86
2022/02/14 01:47:42;;;;;;;4.90;4.10;;;7.20;66.60;;;;;;4963032;28;20482;-86
2022/02/14 01:50:11;;;;;;;6.07;5.27;;;7.20;66.20;;;;;;4976118;28;20459;-84
2022/02/14 01:52:38;;;;;;;5.33;4.83;;;7.20;66.10;;;;;;4961946;28;20495;-86
2022/02/14 01:55:06;;;;;;;5.70;4.90;;;7.20;65.80;;;;;;4955477;29;21065;-86
2022/02/14 01:57:35;;;;;;;7.07;5.00;;;7.20;65.70;;;;;;4955520;28;20475;-85
2022/02/14 02:00:06;;;;;;;4.83;4.13;;;7.20;65.70;;;;;;4960948;29;20936;-86
2022/02/14 02:02:33;;;;;;;4.83;3.83;;;7.20;65.00;;;;;;4957792;29;20449;-86
2022/02/14 02:05:01;;;;;;;4.30;3.87;;;7.30;64.80;;;;;;4955031;28;20456;-85
2022/02/14 02:07:28;;;;;;;5.20;4.10;;;7.30;65.10;;;;;;4955046;28;20472;-86
2022/02/14 02:09:55;;;;;;;5.47;3.70;;;7.20;65.00;;;;;;4956573;28;20452;-86
2022/02/14 02:12:25;;;;;;;6.17;4.10;;;7.20;64.70;;;;;;4955493;28;20488;-85
2022/02/14 02:14:53;;;;;;;5.00;4.57;;;7.20;64.70;;;;;;4955448;29;20453;-86
2022/02/14 02:17:24;;;;;;;6.10;4.40;;;7.30;64.30;;;;;;4958504;28;20464;-84
2022/02/14 02:19:51;;;;;;;5.57;4.20;;;7.30;64.50;;;;;;4966838;29;20444;-85
2022/02/14 02:22:18;;;;;;;5.90;4.23;;;7.30;64.10;;;;;;4971943;28;20437;-85
2022/02/14 02:24:48;;;;;;;4.63;4.00;;;7.30;63.80;;;;;;4964458;28;20451;-86
2022/02/14 02:27:14;;;;;;;7.47;4.40;;;7.30;63.40;;;;;;4959220;28;20472;-85
2022/02/14 02:29:41;;;;;;;4.53;3.90;;;7.30;63.00;;;;;;4959620;29;20461;-87
2022/02/14 02:32:09;;;;;;;5.80;4.60;;;7.30;63.30;;;;;;4980275;29;20666;-86
2022/02/14 02:34:38;;;;;;;4.80;3.80;;;7.30;63.00;;;;;;4973433;29;20435;-86
2022/02/14 02:37:07;;;;;;;5.00;4.00;;;7.20;63.10;;;;;;4969229;28;20449;-85
2022/02/14 02:39:34;;;;;;;5.87;3.87;;;7.20;63.40;;;;;;4978230;28;20492;-86
2022/02/14 02:42:04;;;;;;;9.13;4.13;;;7.30;63.20;;;;;;4970411;28;20456;-86
2022/02/14 02:44:32;;;;;;;5.17;4.10;;;7.20;63.00;;;;;;4963555;29;20585;-86
2022/02/14 02:46:59;;;;;;;5.50;3.63;;;7.30;63.00;;;;;;4966875;28;20559;-86
2022/02/14 02:49:26;;;;;;;4.50;3.50;;;7.30;62.80;;;;;;4962268;28;20808;-86
2022/02/14 02:51:54;;;;;;;6.63;4.17;;;7.30;62.10;;;;;;4959640;28;20947;-86
2022/02/14 02:54:22;;;;;;;5.13;3.90;;;7.40;62.40;;;;;;4959172;29;20452;-85
2022/02/14 02:56:51;;;;;;;3.70;3.30;;;7.40;61.80;;;;;;4958494;28;20468;-86
2022/02/14 02:59:20;;;;;;;5.20;3.60;;;7.40;61.30;;;;;;4958773;28;20545;-86
2022/02/14 03:01:47;;;;;;;6.10;4.17;;;7.50;60.30;;;;;;4959326;28;20478;-86
2022/02/14 03:04:15;;;;;;;4.67;3.80;;;7.50;61.20;;;;;;4962935;28;20437;-86
2022/02/14 03:06:42;;;;;;;4.07;3.10;;;7.60;60.00;;;;;;4961111;28;20494;-86
2022/02/14 03:09:11;;;;;;;5.27;3.83;;;7.50;60.00;;;;;;4957993;29;20456;-85
2022/02/14 03:11:40;;;;;;;7.53;3.17;;;7.40;60.00;;;;;;4957905;28;20449;-87
2022/02/14 03:14:07;;;;;;;3.27;2.97;;;7.40;60.00;;;;;;4957589;28;20484;-86
2022/02/14 03:16:36;;;;;;;3.93;2.90;;;7.40;60.00;;;;;;4958903;28;20476;-85
2022/02/14 03:19:04;;;;;;;5.13;3.90;;;7.40;59.90;;;;;;4976745;28;20468;-85
2022/02/14 03:21:31;;;;;;;4.53;3.30;;;7.40;59.60;;;;;;4980033;28;20449;-85
2022/02/14 03:23:57;;;;;;;4.93;3.13;;;7.40;59.70;;;;;;4977935;29;20433;-85
2022/02/14 03:26:25;;;;;;;3.47;3.00;;;7.40;59.80;;;;;;4979244;28;20465;-86
2022/02/14 03:28:54;;;;;;;5.93;3.83;;;7.30;59.40;;;;;;4958242;28;20457;-86
2022/02/14 03:31:21;;;;;;;5.13;3.60;;;7.30;59.60;;;;;;4958228;28;20966;-86
2022/02/14 03:33:50;;;;;;;4.53;3.30;;;7.30;59.60;;;;;;4968753;28;20461;-85
2022/02/14 03:36:19;;;;;;;3.90;3.60;;;7.30;59.80;;;;;;4981235;28;20421;-86
2022/02/14 03:38:46;;;;;;;4.50;3.53;;;7.20;59.60;;;;;;4962850;28;20441;-86
2022/02/14 03:41:14;;;;;;;5.00;3.87;;;7.10;59.70;;;;;;4957413;28;20813;-87
2022/02/14 03:43:41;;;;;;;5.17;3.57;;;7.00;59.80;;;;;;4959471;28;20437;-86
2022/02/14 03:46:10;;;;;;;4.80;3.50;;;7.00;60.00;;;;;;4975425;28;20463;-86
2022/02/14 03:48:37;;;;;;;4.80;2.77;;;7.00;59.80;;;;;;4973947;28;20456;-86
2022/02/14 03:51:05;;;;;;;3.50;3.20;;;6.90;60.00;;;;;;4958512;28;20468;-86
2022/02/14 03:53:32;;;;;;;3.60;3.30;;;6.90;60.20;;;;;;4957945;28;20487;-87
2022/02/14 03:55:59;;;;;;;5.00;3.67;;;6.90;59.90;;;;;;4977472;28;20520;-86
2022/02/14 03:58:26;;;;;;;4.40;3.80;;;7.10;59.80;;;;;;4981134;28;20444;-86
2022/02/14 04:00:52;;;;;;;4.73;3.03;;;7.00;59.60;;;;;;4973512;28;20464;-87
2022/02/14 04:03:19;;;;;;;4.47;3.70;;;7.00;59.70;;;;;;4960098;28;20445;-87
2022/02/14 04:05:46;;;;;;;5.90;3.43;;;7.00;59.60;;;;;;4968625;28;20471;-87
2022/02/14 04:08:14;;;;;;;4.30;3.47;;;7.00;59.50;;;;;;4979181;28;20480;-87
2022/02/14 04:10:41;;;;;;;6.10;3.33;;;7.00;59.60;;;;;;4979383;28;20512;-87
2022/02/14 04:13:09;;;;;;;7.20;3.70;;;7.00;59.60;;;;;;4975504;28;20999;-86
2022/02/14 04:15:36;;;;;;;6.23;3.30;;;7.00;59.60;;;;;;4978184;28;20437;-87
2022/02/14 04:18:03;;;;;;;4.93;2.90;;;6.90;59.50;;;;;;4963240;28;21015;-87
2022/02/14 04:20:30;;;;;;;4.83;3.53;;;7.00;59.40;;;;;;4959529;28;20929;-87
2022/02/14 04:22:57;;;;;;;7.90;4.47;;;7.00;59.40;;;;;;4958958;28;20959;-87
2022/02/14 04:25:25;;;;;;;6.40;4.47;;;7.00;59.50;;;;;;4972778;28;20441;-86
2022/02/14 04:27:52;;;;;;;4.37;3.43;;;6.90;59.60;;;;;;4979381;28;20520;-86
2022/02/14 04:30:19;;;;;;;4.83;4.03;;;6.90;59.70;;;;;;4975826;28;20611;-86
2022/02/14 04:32:46;;;;;;;4.93;4.30;;;6.90;60.00;;;;;;4959085;28;20485;-87
2022/02/14 04:35:13;;;;;;;6.47;4.43;;;6.90;60.30;;;;;;4958690;28;20460;-86
2022/02/14 04:37:40;;;;;;;6.73;3.87;;;6.90;60.60;;;;;;4972491;28;20479;-86
2022/02/14 04:40:08;;;;;;;5.33;4.83;;;6.90;60.70;;;;;;4964434;28;20448;-87
2022/02/14 04:42:36;;;;;;;5.60;5.00;;;6.80;61.00;;;;;;4960086;28;20452;-86
2022/02/14 04:45:03;;;;;;;12.13;4.43;;;6.80;61.20;;;;;;4972004;28;20449;-87
2022/02/14 04:47:30;;;;;;;4.33;3.90;;;6.80;60.90;;;;;;4961029;28;20476;-87
2022/02/14 04:49:56;;;;;;;7.37;4.70;;;6.80;60.60;;;;;;4957946;28;20526;-85
2022/02/14 04:52:23;;;;;;;9.13;4.57;;;6.80;60.90;;;;;;4957868;28;20456;-85
2022/02/14 04:54:51;;;;;;;6.03;4.40;;;6.70;60.80;;;;;;4957668;29;20456;-86
2022/02/14 04:57:18;;;;;;;7.03;5.00;;;6.70;61.00;;;;;;4958231;28;20967;-86
2022/02/14 04:59:46;;;;;;;8.90;5.07;;;6.70;61.10;;;;;;4957353;28;20449;-86
2022/02/14 05:02:12;;;;;;;6.60;5.40;;;6.70;61.40;;;;;;4969173;28;20475;-85
2022/02/14 05:04:39;;;;;;;8.97;5.30;;;6.70;61.80;;;;;;4979571;28;20465;-85
2022/02/14 05:07:06;;;;;;;6.80;4.80;;;6.70;62.10;;;;;;4967505;28;20914;-86
2022/02/14 05:09:33;;;;;;;10.87;6.20;;;6.70;61.90;;;;;;4957578;29;20453;-86
2022/02/14 05:12:00;;;;;;;7.60;5.67;;;6.60;63.30;;;;;;4957300;29;20480;-87
2022/02/14 05:14:28;;;;;;;6.40;4.80;;;6.50;63.40;;;;;;4961067;28;20477;-87
2022/02/14 05:16:56;;;;;;;7.87;4.97;;;6.50;64.10;;;;;;4957139;28;21021;-87
2022/02/14 05:19:23;;;;;;;14.07;6.40;;;6.50;63.40;;;;;;4957236;28;20456;-87
2022/02/14 05:21:50;;;;;;;12.00;6.00;;;6.50;63.90;;;;;;4959106;28;20453;-86
2022/02/14 05:24:17;;;;;;;10.50;5.90;;;6.40;64.00;;;;;;4970051;28;20437;-85
2022/02/14 05:26:44;;;;;;;11.50;6.17;;;6.30;64.70;;;;;;4979231;28;20453;-85
2022/02/14 05:29:11;;;;;;;11.63;5.30;;;6.30;65.70;;;;;;4964779;28;20508;-86
2022/02/14 05:31:38;;;;;;;9.50;6.20;;;6.20;65.60;;;;;;4975268;28;20459;-87
2022/02/14 05:34:06;;;;;;;11.13;5.70;;;6.10;65.80;;;;;;4969721;28;20812;-86
2022/02/14 05:36:32;;;;;;;8.70;5.40;;;6.20;65.70;;;;;;4965447;28;20457;-86
2022/02/14 05:38:59;;;;;;;9.50;6.23;;;6.20;65.50;;;;;;4963695;29;20460;-87
2022/02/14 05:41:26;;;;;;;10.20;5.50;;;6.10;66.10;;;;;;4956737;28;20457;-86
2022/02/14 05:43:53;;;;;;;8.50;5.70;;;6.10;66.80;;;;;;4977656;28;20492;-86
2022/02/14 05:46:20;;;;;;;9.77;6.57;;;6.10;66.60;;;;;;4966749;28;20540;-86
2022/02/14 05:48:48;;;;;;;9.90;6.20;;;6.10;66.60;;;;;;4956111;28;20460;-86
2022/02/14 05:51:17;;;;;;;11.80;5.27;;;6.00;66.80;;;;;;4959742;28;20449;-86
2022/02/14 05:53:44;;;;;;;9.97;5.90;;;6.10;65.00;;;;;;4977724;28;20489;-86
2022/02/14 05:56:11;;;;;;;10.07;5.67;;;6.10;66.00;;;;;;4964014;28;20456;-87
2022/02/14 05:58:38;;;;;;;8.37;5.90;;;6.10;65.10;;;;;;4960309;28;20457;-87
2022/02/14 06:01:04;;;;;;;10.53;6.20;;;6.10;65.80;;;;;;4960614;28;20452;-86
2022/02/14 06:03:31;;;;;;;8.07;5.50;;;6.10;66.10;;;;;;4964482;28;20455;-87
2022/02/14 06:06:01;;;;;;;10.90;8.80;;;6.10;66.10;;;;;;4979303;28;20441;-87
2022/02/14 06:08:30;;;;;;;8.43;4.77;;;6.10;65.90;;;;;;4982064;28;20453;-86
2022/02/14 06:10:57;;;;;;;9.53;6.00;;;6.20;65.10;;;;;;4962915;28;20471;-86
2022/02/14 06:13:23;;;;;;;12.13;5.10;;;6.30;64.40;;;;;;4960783;28;21014;-86
2022/02/14 06:15:50;;;;;;;13.07;5.90;;;6.40;63.40;;;;;;4963988;28;20433;-86
2022/02/14 06:18:17;;;;;;;6.83;5.40;;;6.40;63.70;;;;;;4960315;28;21002;-86
2022/02/14 06:20:44;;;;;;;5.00;4.30;;;6.50;63.90;;;;;;4968931;28;20448;-86
2022/02/14 06:23:11;;;;;;;12.93;6.27;;;6.50;62.90;;;;;;4981632;28;20447;-86
2022/02/14 06:25:39;;;;;;;10.13;6.10;;;6.60;62.90;;;;;;4969257;29;20452;-86
2022/02/14 06:28:06;;;;;;;12.03;5.50;;;6.60;64.10;;;;;;4961421;28;20472;-86
2022/02/14 06:30:33;;;;;;;11.20;5.30;;;6.50;62.80;;;;;;4960613;28;20448;-87
2022/02/14 06:33:00;;;;;;;19.60;7.20;;;6.50;63.40;;;;;;4974191;28;20453;-86
2022/02/14 06:35:27;;;;;;;8.77;5.50;;;6.50;63.70;;;;;;4962483;28;20452;-86
2022/02/14 06:37:54;;;;;;;14.70;5.30;;;6.40;64.30;;;;;;4960775;28;20987;-87
2022/02/14 06:40:21;;;;;;;10.00;6.03;;;6.40;64.50;;;;;;4974424;29;20967;-86
2022/02/14 06:42:50;;;;;;;7.83;5.83;;;6.40;64.70;;;;;;4974477;28;20448;-86
2022/02/14 06:45:17;;;;;;;8.70;5.40;;;6.40;63.90;;;;;;4961033;28;20523;-86
2022/02/14 06:47:44;;;;;;;11.20;6.00;;;6.50;63.40;;;;;;4960311;28;20452;-86
2022/02/14 06:50:12;;;;;;;9.80;5.87;;;6.50;63.80;;;;;;4971099;29;20449;-85
2022/02/14 06:52:39;;;;;;;10.47;6.83;;;6.40;63.90;;;;;;4978032;28;20443;-86
2022/02/14 06:55:08;;;;;;;13.30;6.80;;;6.40;64.60;;;;;;4975189;28;20484;-86
2022/02/14 06:57:36;;;;;;;10.67;7.17;;;6.40;65.00;;;;;;4967458;28;20479;-86
2022/02/14 07:00:08;;;;;;;10.27;7.27;;;6.40;65.00;;;;;;4961901;28;20806;-87
2022/02/14 07:02:34;;;;;;;8.93;6.50;;;6.40;64.80;;;;;;4960863;29;20520;-86
2022/02/14 07:05:02;;;;;;;10.60;5.73;;;6.40;64.80;;;;;;4960010;28;20437;-87
2022/02/14 07:35:34;;;;;;;17.00;6.73;;;6.60;63.70;;;;;;4891646;29;20490;-88
2022/02/14 11:13:34;;;;;;;5.03;2.53;;;14.10;61.80;;;;;;4761019;29;20491;-88
2022/02/14 12:02:03;;;;;;;3.13;2.27;;;13.70;68.30;;;;;;4941477;28;20532;-88
2022/02/14 12:04:44;;;;;;;3.03;1.97;;;13.70;68.00;;;;;;4957695;28;20462;-88
2022/02/14 12:07:32;;;;;;;4.60;2.20;;;13.70;68.30;;;;;;4964550;29;20494;-87
2022/02/14 12:10:26;;;;;;;2.60;1.73;;;13.70;68.50;;;;;;4964327;29;20988;-88
2022/02/14 12:13:13;;;;;;;3.43;2.17;;;13.60;68.50;;;;;;4963076;28;20458;-88
2022/02/14 12:21:30;;;;;;;5.43;3.03;;;13.50;69.30;;;;;;4963263;29;20493;-87
2022/02/14 12:23:58;;;;;;;4.43;2.37;;;13.60;69.70;;;;;;4960000;28;20534;-87
2022/02/14 12:26:29;;;;;;;6.43;1.80;;;13.50;68.90;;;;;;4965673;28;20450;-88
2022/02/14 12:31:49;;;;;;;3.00;1.77;;;13.60;69.10;;;;;;4961640;29;20434;-88
2022/02/14 12:34:26;;;;;;;7.63;2.63;;;13.60;69.50;;;;;;4960337;29;20450;-88
2022/02/14 12:36:59;;;;;;;5.43;1.93;;;13.60;70.70;;;;;;4962629;29;20500;-87
2022/02/14 12:39:34;;;;;;;9.33;2.70;;;13.70;71.10;;;;;;4957795;29;20454;-87
2022/02/14 12:42:23;;;;;;;3.10;2.00;;;13.60;71.10;;;;;;4957284;29;20473;-87
2022/02/14 12:44:50;;;;;;;7.90;2.30;;;13.50;71.20;;;;;;4957569;29;20541;-87
2022/02/14 12:47:19;;;;;;;3.23;1.50;;;13.50;71.70;;;;;;4960160;28;20475;-89
2022/02/14 12:50:03;;;;;;;4.03;3.20;;;13.50;71.80;;;;;;4967577;28;20455;-87
2022/02/14 12:52:30;;;;;;;3.90;2.30;;;13.60;72.70;;;;;;4963424;29;20501;-88
2022/02/14 12:54:59;;;;;;;6.60;1.70;;;13.60;72.00;;;;;;4963732;28;20460;-87
2022/02/14 12:57:50;;;;;;;5.63;2.23;;;13.70;72.70;;;;;;4967778;28;20494;-87
2022/02/14 13:00:29;;;;;;;3.90;2.00;;;13.80;72.70;;;;;;4971381;28;20556;-87
2022/02/14 13:02:57;;;;;;;3.10;2.30;;;13.90;72.30;;;;;;4956980;29;20562;-87
2022/02/14 13:05:26;;;;;;;3.07;2.03;;;13.90;71.90;;;;;;4957137;28;20498;-87
